Terminal Aerodrome Forecast
Issued by NWS Grand Junction, CO

Home | Current Version | Previous Version | Text Only | Print | Product List | Glossary On
Versions: 1 2 3 4 5 6 7 8 9 10 11 12 13
000
FTUS45 KGJT 301122
TAFGJT
TAF
KGJT 301122Z 3012/3112 10005KT P6SM SKC
     FM301300 14005KT P6SM FEW250
     FM302000 30005KT P6SM SCT250
     FM310200 08004KT P6SM FEW250
     FM310600 11008KT P6SM FEW250=

USA.gov is the U.S. government's official web portal to all federal, state and local government web resources and services.